Time;durP1;ratioP1;P1;durP2;ratioP2;P2;SDS_P1;SDS_P2;PMS_P1;PMS_P2;Temp;Humidity;BMP_temperature;BMP_pressure;BME280_temperature;BME280_humidity;BME280_pressure;Samples;Min_cycle;Max_cycle;Signal;HPM_P1;HPM_P2
2022/08/03 00:01:35;;;;;;;6.00;5.40;;;25.10;92.80;;;;;;5001563;28;20444;-93
2022/08/03 00:04:00;;;;;;;11.47;5.53;;;25.10;92.90;;;;;;5004778;28;20468;-93
2022/08/03 00:06:26;;;;;;;5.77;5.27;;;25.10;92.90;;;;;;4998599;28;20459;-93
2022/08/03 00:08:52;;;;;;;7.20;5.77;;;25.10;93.00;;;;;;4997355;28;20224;-92
2022/08/03 00:11:17;;;;;;;8.63;5.70;;;25.00;93.00;;;;;;4997284;28;20199;-92
2022/08/03 00:13:43;;;;;;;7.83;5.23;;;25.00;93.10;;;;;;4997604;28;20182;-94
2022/08/03 00:16:09;;;;;;;6.50;5.80;;;25.00;93.10;;;;;;4997543;28;20428;-93
2022/08/03 00:18:36;;;;;;;5.90;5.33;;;25.00;93.10;;;;;;4998904;28;20277;-92
2022/08/03 00:21:03;;;;;;;6.07;5.17;;;25.00;93.20;;;;;;4998656;28;20408;-94
2022/08/03 00:23:29;;;;;;;7.33;5.93;;;25.00;93.20;;;;;;4998442;28;20474;-95
2022/08/03 00:25:55;;;;;;;5.67;5.07;;;24.90;93.30;;;;;;4999414;28;20417;-92
2022/08/03 00:28:20;;;;;;;6.67;5.50;;;24.90;93.40;;;;;;4999306;28;20295;-93
2022/08/03 00:30:46;;;;;;;7.00;5.60;;;24.90;93.60;;;;;;5004559;28;20420;-93
2022/08/03 00:33:12;;;;;;;7.77;5.43;;;24.90;93.70;;;;;;4999973;28;20202;-92
2022/08/03 00:35:37;;;;;;;6.07;5.20;;;24.90;93.80;;;;;;4997072;28;20265;-91
2022/08/03 00:38:04;;;;;;;5.67;5.13;;;24.90;93.80;;;;;;4999336;28;20217;-94
2022/08/03 00:40:30;;;;;;;7.50;5.67;;;24.80;93.70;;;;;;5021118;28;20190;-93
2022/08/03 00:42:56;;;;;;;6.93;5.20;;;24.80;93.90;;;;;;5019810;28;20468;-93
2022/08/03 00:45:24;;;;;;;7.20;5.40;;;24.80;93.90;;;;;;5020490;28;20427;-93
2022/08/03 00:47:50;;;;;;;6.80;6.07;;;24.70;94.00;;;;;;5020488;28;20512;-92
2022/08/03 00:50:17;;;;;;;5.53;5.00;;;24.70;94.20;;;;;;5020097;28;20938;-93
2022/08/03 00:52:44;;;;;;;6.87;5.60;;;24.70;94.40;;;;;;5020241;28;20954;-94
2022/08/03 00:55:10;;;;;;;6.40;5.90;;;24.70;94.40;;;;;;5036895;28;20445;-94
2022/08/03 00:57:36;;;;;;;6.63;5.90;;;24.70;94.50;;;;;;5020367;28;20450;-94
2022/08/03 01:00:04;;;;;;;6.07;5.47;;;24.70;94.30;;;;;;5020191;28;20469;-92
2022/08/03 01:02:30;;;;;;;6.93;6.23;;;24.70;94.20;;;;;;5045808;28;20453;-93
2022/08/03 01:04:55;;;;;;;5.80;5.30;;;24.70;94.10;;;;;;5037290;28;20963;-93
2022/08/03 01:07:47;;;;;;;8.10;5.80;;;24.70;94.10;;;;;;5019155;28;20479;-92
2022/08/03 01:10:26;;;;;;;6.20;5.70;;;24.70;94.20;;;;;;5035945;28;20195;-92
2022/08/03 01:13:12;;;;;;;8.50;5.60;;;24.60;94.20;;;;;;5019257;28;20595;-92
2022/08/03 01:15:43;;;;;;;9.23;6.27;;;24.60;94.30;;;;;;5019740;28;20981;-91
2022/08/03 01:18:19;;;;;;;6.40;5.80;;;24.60;94.50;;;;;;5019448;28;20453;-92
2022/08/03 01:20:52;;;;;;;8.83;5.80;;;24.50;94.50;;;;;;5036835;28;20406;-92
2022/08/03 01:23:36;;;;;;;7.23;6.60;;;24.50;94.60;;;;;;5021678;28;20477;-94
2022/08/03 01:26:10;;;;;;;6.60;6.00;;;24.40;94.50;;;;;;5021375;28;20433;-93
2022/08/03 01:28:42;;;;;;;7.67;4.90;;;24.40;94.70;;;;;;5020632;28;20422;-94
2022/08/03 01:31:10;;;;;;;8.53;6.00;;;24.40;94.80;;;;;;5037462;28;20421;-92
2022/08/03 01:33:42;;;;;;;5.90;5.30;;;24.30;94.90;;;;;;5037013;28;20413;-92
2022/08/03 01:36:23;;;;;;;6.53;5.93;;;24.30;94.80;;;;;;5019672;28;20425;-94
2022/08/03 01:38:54;;;;;;;7.80;6.50;;;24.30;94.80;;;;;;5025203;28;20477;-92
2022/08/03 01:41:23;;;;;;;6.07;5.47;;;24.30;94.80;;;;;;5036296;28;20437;-94
2022/08/03 01:43:52;;;;;;;6.07;5.43;;;24.30;94.90;;;;;;5018765;28;20538;-94
2022/08/03 01:46:19;;;;;;;8.50;6.97;;;24.20;95.00;;;;;;5036148;28;20452;-94
2022/08/03 01:48:47;;;;;;;7.17;6.57;;;24.20;95.00;;;;;;5018400;28;20413;-94
2022/08/03 01:51:17;;;;;;;7.40;6.70;;;24.20;95.10;;;;;;5036336;28;20436;-91
2022/08/03 01:53:44;;;;;;;7.77;6.97;;;24.20;95.10;;;;;;5038799;28;20964;-94
2022/08/03 01:56:11;;;;;;;6.77;6.17;;;24.20;95.10;;;;;;5019544;28;20791;-92
2022/08/03 01:58:39;;;;;;;7.10;6.23;;;24.20;95.20;;;;;;5018813;28;20413;-91
2022/08/03 02:01:07;;;;;;;6.40;5.80;;;24.20;95.20;;;;;;5018824;28;20428;-94
2022/08/03 02:03:39;;;;;;;7.43;5.87;;;24.10;95.20;;;;;;5019293;28;20466;-94
2022/08/03 02:06:08;;;;;;;6.80;6.20;;;24.10;95.20;;;;;;5017699;28;20428;-94
2022/08/03 02:08:36;;;;;;;8.53;6.93;;;24.10;95.30;;;;;;5019130;28;20745;-92
2022/08/03 02:11:03;;;;;;;7.97;7.17;;;24.10;95.30;;;;;;5023876;28;20443;-93
2022/08/03 02:13:32;;;;;;;8.00;7.03;;;24.00;95.40;;;;;;5026961;28;20408;-92
2022/08/03 02:15:58;;;;;;;10.67;7.07;;;24.00;95.40;;;;;;5018304;28;20429;-94
2022/08/03 02:18:25;;;;;;;7.30;6.30;;;24.00;95.80;;;;;;5017978;28;20490;-92
2022/08/03 02:20:51;;;;;;;7.07;6.37;;;23.90;95.50;;;;;;5018033;28;20815;-94
2022/08/03 02:23:18;;;;;;;8.27;5.80;;;23.90;95.60;;;;;;5035608;28;20468;-92
2022/08/03 02:25:51;;;;;;;10.83;6.93;;;23.90;95.60;;;;;;5035673;28;20415;-92
2022/08/03 02:28:20;;;;;;;7.67;6.10;;;23.90;95.80;;;;;;5017816;28;20473;-92
2022/08/03 02:30:53;;;;;;;7.00;6.30;;;23.90;95.80;;;;;;5018577;28;20413;-92
2022/08/03 02:33:30;;;;;;;7.90;7.13;;;23.90;95.90;;;;;;5035998;28;20916;-93
2022/08/03 02:35:58;;;;;;;7.03;6.37;;;23.90;96.00;;;;;;5018824;28;20413;-94
2022/08/03 02:38:30;;;;;;;7.40;6.80;;;23.80;96.10;;;;;;5018804;28;20468;-92
2022/08/03 02:40:57;;;;;;;8.37;7.53;;;23.80;96.10;;;;;;5022766;28;20416;-92
2022/08/03 02:43:25;;;;;;;9.33;8.10;;;23.80;96.20;;;;;;5035110;28;20476;-92
2022/08/03 02:45:53;;;;;;;9.17;7.80;;;23.70;96.30;;;;;;5019284;28;20430;-92
2022/08/03 02:48:27;;;;;;;6.90;6.30;;;23.70;96.40;;;;;;5018232;28;20409;-92
2022/08/03 02:50:55;;;;;;;6.93;6.33;;;23.70;96.50;;;;;;5017469;28;20404;-94
2022/08/03 02:53:23;;;;;;;13.50;7.70;;;23.60;96.50;;;;;;5017823;28;20408;-92
2022/08/03 02:55:50;;;;;;;8.30;7.50;;;23.60;96.50;;;;;;5036307;28;20499;-92
2022/08/03 02:58:20;;;;;;;8.30;7.37;;;23.60;96.50;;;;;;5035334;28;20440;-91
2022/08/03 03:00:47;;;;;;;9.00;7.67;;;23.60;96.60;;;;;;5018778;28;20941;-94
2022/08/03 03:03:14;;;;;;;9.47;7.70;;;23.60;96.60;;;;;;5018107;28;20463;-94
2022/08/03 03:05:41;;;;;;;8.63;7.83;;;23.60;96.70;;;;;;5035795;28;20771;-94
2022/08/03 03:08:08;;;;;;;8.40;7.60;;;23.50;97.00;;;;;;5017999;28;20455;-94
2022/08/03 03:10:36;;;;;;;9.37;7.67;;;23.50;97.10;;;;;;5018419;28;20944;-93
2022/08/03 03:13:02;;;;;;;8.87;8.07;;;23.40;96.80;;;;;;5023123;28;20509;-94
2022/08/03 03:15:30;;;;;;;9.27;8.47;;;23.40;96.80;;;;;;5017120;28;20495;-91
2022/08/03 03:17:58;;;;;;;8.43;7.53;;;23.40;96.90;;;;;;5037576;28;20440;-94
2022/08/03 03:20:24;;;;;;;12.13;8.30;;;23.40;97.00;;;;;;5017209;28;20403;-94
2022/08/03 03:22:51;;;;;;;9.17;7.70;;;23.30;97.10;;;;;;5017231;28;20543;-91
2022/08/03 03:25:17;;;;;;;11.67;8.23;;;23.30;97.10;;;;;;5017237;28;20417;-92
2022/08/03 03:27:44;;;;;;;7.77;7.00;;;23.30;97.20;;;;;;5035593;28;20452;-94
2022/08/03 03:30:11;;;;;;;10.97;8.20;;;23.20;97.30;;;;;;5018045;28;20414;-92
2022/08/03 03:32:38;;;;;;;13.53;7.90;;;23.20;97.40;;;;;;5037318;28;20437;-92
2022/08/03 03:35:05;;;;;;;8.37;6.73;;;23.20;97.60;;;;;;5045589;28;20413;-92
2022/08/03 03:37:31;;;;;;;8.93;6.97;;;23.20;97.60;;;;;;5020015;28;20809;-92
2022/08/03 03:39:57;;;;;;;12.70;8.40;;;23.10;97.70;;;;;;5016680;28;20476;-94
2022/08/03 03:42:23;;;;;;;12.13;8.70;;;23.10;97.90;;;;;;5016640;28;20202;-94
2022/08/03 03:44:49;;;;;;;9.20;8.23;;;23.00;97.90;;;;;;5016954;28;20598;-94
2022/08/03 03:47:15;;;;;;;10.00;7.20;;;22.90;98.00;;;;;;5034893;28;20448;-94
2022/08/03 03:49:41;;;;;;;9.57;8.17;;;22.90;98.20;;;;;;5018027;28;20655;-93
2022/08/03 03:52:07;;;;;;;12.40;8.57;;;22.90;98.80;;;;;;5017091;28;20633;-94
2022/08/03 03:54:41;;;;;;;11.97;8.77;;;22.80;98.60;;;;;;5017803;28;20451;-93
2022/08/03 03:57:06;;;;;;;9.00;7.80;;;22.80;98.70;;;;;;5017968;28;20203;-94
2022/08/03 03:59:32;;;;;;;8.37;7.33;;;22.80;98.90;;;;;;5036992;28;20762;-91
2022/08/03 04:01:58;;;;;;;8.60;7.70;;;22.80;99.10;;;;;;5049084;28;20281;-92
2022/08/03 04:12:39;;;;;;;14.57;9.60;;;22.80;99.40;;;;;;5037560;28;20438;-94
2022/08/03 04:15:06;;;;;;;10.43;8.20;;;22.80;99.40;;;;;;5017453;28;20404;-94
2022/08/03 04:17:32;;;;;;;9.03;8.13;;;22.90;99.30;;;;;;5018122;28;20455;-94
2022/08/03 04:20:00;;;;;;;11.93;8.60;;;22.90;99.00;;;;;;5034840;28;20920;-91
2022/08/03 04:22:30;;;;;;;10.00;8.03;;;22.90;99.00;;;;;;5035271;28;20291;-94
2022/08/03 04:25:01;;;;;;;11.13;8.23;;;22.90;98.80;;;;;;5017612;28;20463;-94
2022/08/03 04:27:33;;;;;;;9.37;8.40;;;22.90;98.80;;;;;;5020379;28;20443;-93
2022/08/03 04:30:02;;;;;;;10.33;8.70;;;22.90;98.80;;;;;;5021212;28;20424;-95
2022/08/03 04:32:29;;;;;;;10.77;8.50;;;22.90;98.80;;;;;;5037668;28;20439;-95
2022/08/03 04:34:55;;;;;;;9.60;8.57;;;23.00;98.90;;;;;;5020009;28;20422;-94
2022/08/03 04:37:42;;;;;;;9.27;8.03;;;23.00;98.80;;;;;;5020214;28;20439;-91
2022/08/03 04:40:13;;;;;;;11.90;8.60;;;23.00;99.10;;;;;;5019818;28;20968;-96
2022/08/03 04:42:40;;;;;;;15.40;8.37;;;23.00;99.70;;;;;;5037871;28;20527;-95
2022/08/03 04:45:10;;;;;;;9.90;7.97;;;23.10;99.90;;;;;;5037302;28;20455;-91
2022/08/03 04:47:37;;;;;;;9.33;8.33;;;23.10;99.90;;;;;;5019780;28;20468;-91
2022/08/03 04:50:05;;;;;;;9.40;8.40;;;23.10;99.90;;;;;;5037683;28;20419;-94
2022/08/03 04:52:31;;;;;;;10.40;8.70;;;23.20;99.90;;;;;;5039651;28;20439;-91
2022/08/03 04:54:57;;;;;;;10.03;8.50;;;23.20;99.90;;;;;;5038051;28;20434;-90
2022/08/03 04:57:23;;;;;;;8.97;8.07;;;23.30;99.90;;;;;;5020896;28;20534;-95
2022/08/03 04:59:53;;;;;;;9.00;8.00;;;23.30;99.90;;;;;;5045282;28;20201;-94
2022/08/03 05:02:21;;;;;;;9.30;8.23;;;23.40;99.80;;;;;;5018766;28;20268;-95
2022/08/03 05:04:47;;;;;;;9.47;8.53;;;23.40;99.40;;;;;;5036921;28;20464;-91
2022/08/03 05:07:14;;;;;;;8.90;8.00;;;23.40;99.20;;;;;;5019251;28;20489;-93
2022/08/03 05:09:40;;;;;;;10.60;8.93;;;23.50;99.10;;;;;;5019032;28;20418;-91
2022/08/03 05:12:22;;;;;;;;;;;;;;;;;;;;;
2022/08/03 05:14:51;;;;;;;320.83;164.37;;;23.50;99.90;;;;;;5026282;28;20401;-95
2022/08/03 05:17:18;;;;;;;139.93;80.17;;;23.60;99.90;;;;;;4999146;28;20853;-91
2022/08/03 05:19:44;;;;;;;56.33;32.60;;;23.70;99.90;;;;;;4999233;28;20940;-95
2022/08/03 05:22:10;;;;;;;15.00;11.53;;;23.70;99.90;;;;;;5001410;28;20455;-95
2022/08/03 05:24:35;;;;;;;15.27;12.40;;;23.80;99.60;;;;;;5000143;28;20479;-90
2022/08/03 05:27:04;;;;;;;10.60;9.00;;;23.80;99.00;;;;;;5020905;28;20210;-90
2022/08/03 05:29:30;;;;;;;14.33;8.90;;;23.90;98.80;;;;;;5020259;28;20279;-91
2022/08/03 05:31:56;;;;;;;11.27;8.63;;;24.00;99.00;;;;;;5024836;28;20853;-91
2022/08/03 05:34:26;;;;;;;12.20;9.80;;;24.00;98.50;;;;;;5016159;28;20212;-91
2022/08/03 05:36:52;;;;;;;9.13;8.00;;;24.10;98.80;;;;;;5024453;28;20205;-95
2022/08/03 05:39:21;;;;;;;8.47;7.67;;;24.10;98.30;;;;;;5008632;28;20794;-91
2022/08/03 05:41:57;;;;;;;9.33;8.03;;;24.20;98.20;;;;;;5000854;28;20197;-95
2022/08/03 05:44:24;;;;;;;8.27;7.20;;;24.30;98.20;;;;;;5001392;28;20479;-90
2022/08/03 05:46:53;;;;;;;9.33;8.30;;;24.40;98.20;;;;;;5012014;28;20436;-95
2022/08/03 05:49:19;;;;;;;10.00;7.97;;;24.50;98.70;;;;;;5013672;28;20798;-91
2022/08/03 05:52:00;;;;;;;9.87;7.80;;;24.70;98.00;;;;;;5017754;28;20519;-94
2022/08/03 05:54:26;;;;;;;9.60;7.67;;;24.80;98.80;;;;;;5013656;28;20442;-91
2022/08/03 05:56:51;;;;;;;8.67;7.73;;;24.90;97.60;;;;;;5028362;28;20460;-96
2022/08/03 05:59:18;;;;;;;9.40;8.43;;;25.10;97.60;;;;;;5010891;28;20175;-94
2022/08/03 06:01:44;;;;;;;13.10;8.00;;;25.20;98.30;;;;;;5007895;28;20310;-95
2022/08/03 06:04:09;;;;;;;8.20;7.37;;;25.40;97.40;;;;;;5013640;28;20948;-95
2022/08/03 06:06:35;;;;;;;8.90;7.77;;;25.50;98.00;;;;;;5010222;28;20207;-91
2022/08/03 06:09:01;;;;;;;9.23;7.40;;;25.70;99.10;;;;;;5006573;28;20192;-95
2022/08/03 06:11:27;;;;;;;10.20;7.37;;;25.90;99.20;;;;;;5007634;28;20585;-91
2022/08/03 06:13:56;;;;;;;9.27;8.27;;;26.00;99.20;;;;;;5015288;28;20171;-96
2022/08/03 06:16:22;;;;;;;8.83;7.03;;;26.20;99.20;;;;;;5015476;28;20807;-91
2022/08/03 06:19:05;;;;;;;12.83;8.03;;;26.40;99.10;;;;;;5018569;28;20420;-95
2022/08/03 06:21:30;;;;;;;9.57;7.70;;;26.50;98.90;;;;;;5009454;28;20476;-95
2022/08/03 06:23:56;;;;;;;9.67;8.67;;;26.60;98.80;;;;;;5011188;28;20509;-94
2022/08/03 06:26:26;;;;;;;11.27;8.67;;;26.80;98.70;;;;;;5014855;28;20210;-96
2022/08/03 06:28:53;;;;;;;7.70;7.00;;;26.90;98.60;;;;;;5010019;28;20233;-90
2022/08/03 06:31:20;;;;;;;9.23;8.33;;;27.00;98.40;;;;;;5010101;28;20524;-91
2022/08/03 06:33:53;;;;;;;8.77;7.80;;;27.10;98.30;;;;;;5011455;28;20472;-91
2022/08/03 06:36:19;;;;;;;8.53;7.63;;;27.30;98.20;;;;;;5015361;28;20459;-91
2022/08/03 06:38:45;;;;;;;7.80;7.00;;;27.40;98.00;;;;;;5015945;28;20472;-95
2022/08/03 06:41:11;;;;;;;8.83;7.77;;;27.50;98.20;;;;;;5015284;28;20370;-96
2022/08/03 06:43:37;;;;;;;13.47;8.63;;;27.60;97.80;;;;;;5018076;28;20286;-91
2022/08/03 06:46:46;;;;;;;;;;;;;;;;;;;;;
2022/08/03 06:49:12;;;;;;;9.93;7.67;;;27.80;97.60;;;;;;4975438;28;20438;-92
2022/08/03 06:51:38;;;;;;;8.77;7.60;;;28.00;97.50;;;;;;5002923;28;20543;-92
2022/08/03 06:54:04;;;;;;;8.77;7.87;;;28.10;97.30;;;;;;5012640;28;20198;-93
2022/08/03 06:56:32;;;;;;;8.50;7.00;;;28.20;96.50;;;;;;5022043;28;20206;-96
2022/08/03 06:58:58;;;;;;;9.00;7.87;;;28.20;96.60;;;;;;5001698;28;20715;-93
2022/08/03 07:01:24;;;;;;;8.43;7.63;;;28.30;96.20;;;;;;5007047;28;20452;-96
2022/08/03 07:03:50;;;;;;;9.93;7.23;;;28.30;94.70;;;;;;5007074;28;20579;-96
2022/08/03 07:06:21;;;;;;;9.30;8.40;;;28.30;94.80;;;;;;5012551;28;20226;-92
2022/08/03 07:08:47;;;;;;;9.80;7.67;;;28.40;95.90;;;;;;5006998;28;20189;-92
2022/08/03 07:11:13;;;;;;;9.30;8.40;;;28.50;94.60;;;;;;5015522;28;21203;-92
2022/08/03 07:13:40;;;;;;;8.53;7.73;;;28.60;94.10;;;;;;5010631;28;20602;-96
2022/08/03 07:16:05;;;;;;;8.27;7.47;;;28.60;94.80;;;;;;5012282;28;20447;-92
2022/08/03 07:18:31;;;;;;;7.73;7.03;;;28.70;95.30;;;;;;4994112;28;20442;-96
2022/08/03 07:21:14;;;;;;;10.83;8.33;;;28.80;95.00;;;;;;5010759;28;20190;-96
2022/08/03 07:23:40;;;;;;;8.53;6.87;;;28.90;94.10;;;;;;5006099;28;20213;-96
2022/08/03 07:26:06;;;;;;;8.03;7.23;;;28.90;93.60;;;;;;5007015;28;20889;-93
2022/08/03 07:28:32;;;;;;;8.97;8.00;;;29.00;93.30;;;;;;5006645;28;20541;-91
2022/08/03 07:30:58;;;;;;;9.50;7.97;;;29.10;93.50;;;;;;5010315;28;20662;-93
2022/08/03 07:33:24;;;;;;;8.77;7.57;;;29.10;93.30;;;;;;5014212;28;20290;-94
2022/08/03 07:35:50;;;;;;;7.83;7.13;;;29.20;94.20;;;;;;5016321;28;20955;-90
2022/08/03 07:38:16;;;;;;;8.13;7.10;;;29.30;94.00;;;;;;5011172;28;20206;-93
2022/08/03 07:40:42;;;;;;;7.10;6.50;;;29.40;93.90;;;;;;5013970;28;20436;-95
2022/08/03 07:43:08;;;;;;;8.00;7.30;;;29.50;94.00;;;;;;5016862;28;20437;-93
2022/08/03 07:45:33;;;;;;;7.40;6.10;;;29.60;93.90;;;;;;5014150;28;20248;-96
2022/08/03 07:48:00;;;;;;;7.57;6.37;;;29.70;93.50;;;;;;5015648;28;20192;-96
2022/08/03 07:50:25;;;;;;;10.10;6.03;;;29.70;92.50;;;;;;5017662;28;20214;-96
2022/08/03 07:52:52;;;;;;;7.27;6.57;;;29.80;91.90;;;;;;5017836;28;21026;-94
2022/08/03 07:55:20;;;;;;;7.80;7.00;;;29.80;91.80;;;;;;5015814;28;20188;-92
2022/08/03 07:57:58;;;;;;;7.60;6.37;;;29.90;91.50;;;;;;5020983;28;20472;-96
2022/08/03 08:00:23;;;;;;;7.13;6.53;;;29.90;91.00;;;;;;5010415;28;20522;-92
2022/08/03 08:02:49;;;;;;;8.23;7.23;;;30.00;91.20;;;;;;5014962;28;20523;-93
2022/08/03 08:05:15;;;;;;;7.13;6.53;;;30.10;91.60;;;;;;5018609;28;20322;-93
2022/08/03 08:07:41;;;;;;;7.20;6.53;;;30.20;91.20;;;;;;5015614;28;20328;-93
2022/08/03 08:10:08;;;;;;;8.47;6.20;;;30.30;91.60;;;;;;5019389;28;20528;-96
2022/08/03 08:12:34;;;;;;;7.50;6.80;;;30.40;91.80;;;;;;5020406;28;20209;-92
2022/08/03 08:15:09;;;;;;;6.93;6.33;;;30.50;91.10;;;;;;5038017;28;20452;-92
2022/08/03 08:17:55;;;;;;;7.23;6.63;;;30.50;91.30;;;;;;5019658;28;20202;-93
2022/08/03 08:20:24;;;;;;;7.50;6.23;;;30.70;91.50;;;;;;5020261;28;20442;-96
2022/08/03 08:22:50;;;;;;;8.07;6.80;;;30.80;90.70;;;;;;5009257;28;20827;-92
2022/08/03 08:25:15;;;;;;;6.10;5.57;;;30.80;90.60;;;;;;5034550;28;20490;-95
2022/08/03 08:27:47;;;;;;;7.13;6.53;;;30.90;90.60;;;;;;5031866;28;20529;-95
2022/08/03 08:30:15;;;;;;;6.37;5.70;;;30.90;90.60;;;;;;5030683;28;20198;-92
2022/08/03 08:32:41;;;;;;;6.50;6.00;;;31.00;90.40;;;;;;5019667;28;20460;-96
2022/08/03 08:35:08;;;;;;;6.37;5.80;;;31.10;90.40;;;;;;5017369;28;20466;-96
2022/08/03 08:37:34;;;;;;;6.60;6.00;;;31.20;90.30;;;;;;5015788;28;20431;-96
2022/08/03 08:40:04;;;;;;;6.53;5.90;;;31.20;89.10;;;;;;5016886;28;20482;-92
2022/08/03 08:42:31;;;;;;;6.10;5.53;;;31.30;90.10;;;;;;5015836;28;20832;-94
2022/08/03 08:44:56;;;;;;;6.50;6.00;;;31.40;90.00;;;;;;5214051;23;20488;-92
2022/08/03 08:47:24;;;;;;;6.00;5.50;;;31.50;89.70;;;;;;4986431;28;20955;-92
2022/08/03 08:49:54;;;;;;;6.03;5.53;;;31.50;88.10;;;;;;4989934;28;20295;-92
2022/08/03 08:52:24;;;;;;;6.27;5.67;;;31.60;88.50;;;;;;4998414;28;20406;-93
2022/08/03 08:54:54;;;;;;;6.20;5.70;;;31.60;87.50;;;;;;4965314;28;20461;-93
2022/08/03 08:57:23;;;;;;;6.03;5.53;;;31.60;87.00;;;;;;4961207;28;20431;-93
2022/08/03 08:59:49;;;;;;;5.03;4.63;;;31.60;86.80;;;;;;4961685;28;20966;-93
2022/08/03 09:02:15;;;;;;;5.20;4.80;;;31.80;86.50;;;;;;4961959;28;20414;-96
2022/08/03 09:04:41;;;;;;;5.43;4.93;;;31.90;86.50;;;;;;4962267;28;20317;-96
2022/08/03 09:07:07;;;;;;;5.13;4.67;;;32.10;86.00;;;;;;4965234;28;20185;-96
2022/08/03 09:09:33;;;;;;;5.47;5.00;;;32.10;85.50;;;;;;4970866;28;20208;-94
2022/08/03 09:11:59;;;;;;;7.33;5.10;;;32.20;85.20;;;;;;4970106;28;20509;-91
2022/08/03 09:14:25;;;;;;;6.37;5.80;;;32.20;84.90;;;;;;4972151;28;20574;-96
2022/08/03 09:17:01;;;;;;;5.40;5.00;;;32.40;84.60;;;;;;4960278;28;20279;-95
2022/08/03 09:19:28;;;;;;;5.50;5.00;;;32.50;83.60;;;;;;4960979;28;20197;-92
2022/08/03 09:22:13;;;;;;;6.90;4.47;;;32.50;83.10;;;;;;4979911;28;20438;-95
2022/08/03 09:25:04;;;;;;;4.90;4.47;;;32.30;83.30;;;;;;4960932;28;20525;-96
2022/08/03 09:27:42;;;;;;;5.20;4.80;;;32.20;83.60;;;;;;4920411;28;20493;-92
2022/08/03 09:30:13;;;;;;;5.23;4.70;;;32.30;83.50;;;;;;4977845;28;20468;-94
2022/08/03 09:32:39;;;;;;;6.37;5.30;;;32.50;83.30;;;;;;4967497;28;20952;-95
2022/08/03 09:35:05;;;;;;;5.67;4.90;;;32.60;82.80;;;;;;4978041;28;20458;-96
2022/08/03 09:37:31;;;;;;;6.20;5.60;;;32.80;82.00;;;;;;4977826;28;20407;-94
2022/08/03 09:39:56;;;;;;;5.70;5.20;;;32.80;81.90;;;;;;4960450;28;20236;-95
2022/08/03 09:42:22;;;;;;;5.10;4.70;;;32.90;82.20;;;;;;4960517;28;20172;-95
2022/08/03 09:44:50;;;;;;;4.63;4.27;;;32.90;82.00;;;;;;4961061;28;20243;-96
2022/08/03 09:47:29;;;;;;;8.70;4.70;;;32.90;81.90;;;;;;4964401;28;20188;-95
2022/08/03 09:50:08;;;;;;;7.63;4.50;;;32.90;82.00;;;;;;4958511;28;20990;-95
2022/08/03 09:52:38;;;;;;;5.30;4.80;;;32.80;82.00;;;;;;4967302;28;20512;-91
2022/08/03 09:55:12;;;;;;;7.23;4.60;;;32.90;82.10;;;;;;4977068;28;20464;-95
2022/08/03 09:57:39;;;;;;;5.17;4.57;;;32.90;81.40;;;;;;4975979;28;20410;-95
2022/08/03 10:00:16;;;;;;;5.20;4.80;;;32.90;80.90;;;;;;4972467;28;20556;-95
2022/08/03 10:02:43;;;;;;;5.37;4.87;;;32.80;80.20;;;;;;4960021;28;20423;-95
2022/08/03 10:05:11;;;;;;;7.00;4.73;;;32.70;80.40;;;;;;4946418;28;21021;-91
2022/08/03 10:07:42;;;;;;;4.80;4.43;;;32.60;80.50;;;;;;4958329;28;20441;-91
2022/08/03 10:10:09;;;;;;;5.23;4.73;;;32.60;81.00;;;;;;4957817;28;20457;-95
2022/08/03 10:12:36;;;;;;;91.57;58.47;;;32.40;81.30;;;;;;4958847;28;20462;-91
2022/08/03 10:15:02;;;;;;;108.60;75.33;;;32.40;81.60;;;;;;4976714;28;20450;-95
2022/08/03 10:17:28;;;;;;;10.03;7.10;;;32.40;81.70;;;;;;4957472;28;20792;-91
2022/08/03 10:19:54;;;;;;;5.77;5.20;;;32.30;81.30;;;;;;4971432;28;20458;-91
2022/08/03 10:22:26;;;;;;;5.13;4.73;;;32.30;81.50;;;;;;4970341;28;20180;-91
2022/08/03 10:24:59;;;;;;;4.37;4.07;;;32.30;81.60;;;;;;4962680;28;20228;-91
2022/08/03 10:27:31;;;;;;;5.40;4.90;;;32.30;81.80;;;;;;4975063;28;20418;-94
2022/08/03 10:30:00;;;;;;;5.47;4.97;;;32.20;81.90;;;;;;4975678;28;20465;-91
2022/08/03 10:32:41;;;;;;;4.90;4.50;;;32.10;81.90;;;;;;4965714;28;20793;-95
2022/08/03 10:35:15;;;;;;;4.80;4.40;;;32.10;81.60;;;;;;4957855;28;20786;-95
2022/08/03 10:37:43;;;;;;;6.33;4.80;;;32.10;81.00;;;;;;4966442;28;20804;-95
2022/08/03 10:40:13;;;;;;;4.10;3.80;;;32.20;80.60;;;;;;4947087;28;20845;-92
2022/08/03 10:42:42;;;;;;;5.13;3.97;;;32.20;80.60;;;;;;4949160;28;20950;-95
2022/08/03 10:45:16;;;;;;;5.10;4.20;;;32.20;80.30;;;;;;4953368;28;20501;-95
2022/08/03 10:47:43;;;;;;;4.47;4.07;;;32.20;79.50;;;;;;4960950;28;20509;-93
2022/08/03 10:50:11;;;;;;;5.20;4.00;;;32.20;78.80;;;;;;4967705;28;21037;-92
2022/08/03 10:53:00;;;;;;;3.90;3.60;;;32.10;78.90;;;;;;4967729;28;20428;-91
2022/08/03 10:58:45;;;;;;;4.73;4.33;;;32.00;79.40;;;;;;4972074;28;20433;-91
2022/08/03 11:01:12;;;;;;;4.57;4.27;;;32.10;79.40;;;;;;4967829;28;20434;-93
2022/08/03 11:03:53;;;;;;;9.47;4.50;;;32.10;79.80;;;;;;4976612;28;20485;-93
2022/08/03 11:06:26;;;;;;;4.20;3.80;;;32.10;79.90;;;;;;4962535;28;20477;-90
2022/08/03 11:09:43;;;;;;;3.93;3.50;;;32.10;78.20;;;;;;4983230;28;20493;-93
2022/08/03 11:12:30;;;;;;;3.60;3.30;;;32.10;77.60;;;;;;4941725;28;20923;-93
2022/08/03 11:15:01;;;;;;;4.63;4.00;;;32.10;78.10;;;;;;4969011;28;20468;-94
2022/08/03 11:17:27;;;;;;;3.70;3.50;;;32.10;77.20;;;;;;4965714;28;20414;-88
2022/08/03 11:19:53;;;;;;;3.87;3.60;;;32.20;76.30;;;;;;4970202;28;20483;-94
2022/08/03 11:22:20;;;;;;;4.17;3.70;;;32.20;76.50;;;;;;4984356;28;20198;-91
2022/08/03 11:24:49;;;;;;;5.53;4.40;;;32.20;77.30;;;;;;4992306;28;21001;-91
2022/08/03 11:27:23;;;;;;;5.90;3.93;;;32.20;76.10;;;;;;4973092;28;20422;-95
2022/08/03 11:30:07;;;;;;;6.93;3.90;;;32.20;75.90;;;;;;4965321;28;20469;-92
2022/08/03 11:32:39;;;;;;;3.60;3.30;;;32.20;77.30;;;;;;4961191;28;20438;-93
2022/08/03 11:35:11;;;;;;;4.67;4.30;;;32.20;78.00;;;;;;4974883;28;20461;-92
2022/08/03 11:38:00;;;;;;;3.87;3.57;;;32.20;77.60;;;;;;4979522;28;20430;-91
2022/08/03 11:40:38;;;;;;;4.63;4.27;;;32.20;77.70;;;;;;4938036;28;20470;-92
2022/08/03 11:43:05;;;;;;;4.13;3.83;;;32.20;78.50;;;;;;4971287;28;20537;-93
2022/08/03 11:45:32;;;;;;;4.57;4.17;;;32.10;79.60;;;;;;4974886;28;20517;-94
2022/08/03 11:48:01;;;;;;;4.03;3.80;;;31.90;80.30;;;;;;4969480;28;20422;-94
2022/08/03 11:50:36;;;;;;;4.33;4.03;;;31.90;80.40;;;;;;4963148;28;20469;-91
2022/08/03 11:53:02;;;;;;;3.97;3.67;;;31.90;80.60;;;;;;4972836;28;20461;-91
2022/08/03 11:55:29;;;;;;;4.13;3.83;;;31.90;80.60;;;;;;4973754;28;20456;-95
2022/08/03 11:57:58;;;;;;;3.90;3.60;;;31.80;80.80;;;;;;4983273;28;20468;-88
2022/08/03 12:00:31;;;;;;;5.30;4.30;;;31.70;80.70;;;;;;4974060;28;20460;-91
2022/08/03 12:03:01;;;;;;;4.43;4.03;;;31.70;78.80;;;;;;4978659;28;20419;-92
2022/08/03 12:05:35;;;;;;;5.50;3.73;;;31.70;79.60;;;;;;4979428;28;20500;-91
2022/08/03 12:08:01;;;;;;;4.33;3.93;;;31.70;80.10;;;;;;4984165;28;21016;-95
2022/08/03 12:10:27;;;;;;;4.53;4.13;;;31.60;81.00;;;;;;4982205;28;20461;-92
2022/08/03 12:12:57;;;;;;;4.67;4.13;;;31.60;80.10;;;;;;4973411;28;20418;-95
2022/08/03 12:15:27;;;;;;;3.80;3.50;;;31.70;78.90;;;;;;4971182;28;20820;-92
2022/08/03 12:17:54;;;;;;;4.30;3.93;;;31.70;80.30;;;;;;4977601;28;20498;-92
2022/08/03 12:20:27;;;;;;;5.20;3.87;;;31.70;80.10;;;;;;4996386;28;20536;-94
2022/08/03 12:22:53;;;;;;;4.47;3.90;;;31.80;80.40;;;;;;4989467;28;20418;-93
2022/08/03 12:25:23;;;;;;;4.20;3.90;;;31.80;80.10;;;;;;4972798;28;21013;-92
2022/08/03 12:27:51;;;;;;;4.50;4.10;;;31.80;81.00;;;;;;4978907;28;20181;-92
2022/08/03 12:30:17;;;;;;;4.03;3.60;;;31.80;80.90;;;;;;4977983;28;20505;-91
2022/08/03 12:32:43;;;;;;;4.40;4.00;;;31.80;78.90;;;;;;4977001;28;20434;-90
2022/08/03 12:35:21;;;;;;;4.33;4.00;;;31.90;77.40;;;;;;4976180;28;20454;-91
2022/08/03 12:37:48;;;;;;;4.37;3.60;;;31.90;77.00;;;;;;4978816;28;20414;-93
2022/08/03 12:40:14;;;;;;;4.00;3.70;;;31.90;77.40;;;;;;4981180;28;20458;-94
2022/08/03 12:42:40;;;;;;;5.77;4.13;;;31.90;77.30;;;;;;4987905;28;20434;-94
2022/08/03 12:45:19;;;;;;;4.40;4.00;;;31.80;79.80;;;;;;4979405;28;20493;-94
2022/08/03 12:47:57;;;;;;;5.27;4.27;;;31.80;77.20;;;;;;4961341;28;20180;-91
2022/08/03 12:50:31;;;;;;;3.63;3.33;;;31.90;77.60;;;;;;4979386;28;20454;-90
2022/08/03 12:52:58;;;;;;;4.07;3.77;;;32.00;75.50;;;;;;4973075;28;20423;-92
2022/08/03 12:55:32;;;;;;;5.23;4.80;;;32.00;75.30;;;;;;4966580;28;20572;-95
2022/08/03 12:58:02;;;;;;;4.43;3.97;;;32.10;74.80;;;;;;4970376;28;20398;-92
2022/08/03 13:00:29;;;;;;;4.33;3.90;;;32.20;75.40;;;;;;4986872;28;20469;-95
2022/08/03 13:03:02;;;;;;;4.47;3.67;;;32.20;75.10;;;;;;4969268;28;20426;-94
2022/08/03 13:05:28;;;;;;;3.60;3.30;;;32.30;74.90;;;;;;4978361;28;20636;-92
2022/08/03 13:07:54;;;;;;;4.47;3.83;;;32.30;74.60;;;;;;4971712;28;20445;-91
2022/08/03 13:10:37;;;;;;;5.13;3.70;;;32.40;74.50;;;;;;4974508;28;20259;-95